sensor_id;sensor_type;location;lat;lon;timestamp;P1;durP1;ratioP1;P2;durP2;ratioP2
37383;SDS011;23258;49.718;11.082;2023-08-06T00:00:18;5.40;;;4.90;;
37383;SDS011;23258;49.718;11.082;2023-08-06T00:02:51;5.25;;;4.60;;
37383;SDS011;23258;49.718;11.082;2023-08-06T00:05:24;4.80;;;4.40;;
37383;SDS011;23258;49.718;11.082;2023-08-06T00:07:56;5.88;;;5.30;;
37383;SDS011;23258;49.718;11.082;2023-08-06T00:10:26;5.05;;;4.65;;
37383;SDS011;23258;49.718;11.082;2023-08-06T00:12:56;27.17;;;5.72;;
37383;SDS011;23258;49.718;11.082;2023-08-06T00:15:25;5.40;;;5.00;;
37383;SDS011;23258;49.718;11.082;2023-08-06T00:17:55;5.70;;;5.15;;
37383;SDS011;23258;49.718;11.082;2023-08-06T00:20:25;6.47;;;4.95;;
37383;SDS011;23258;49.718;11.082;2023-08-06T00:22:57;5.20;;;4.68;;
37383;SDS011;23258;49.718;11.082;2023-08-06T00:25:27;4.93;;;4.53;;
37383;SDS011;23258;49.718;11.082;2023-08-06T00:27:57;5.07;;;3.97;;
37383;SDS011;23258;49.718;11.082;2023-08-06T00:30:26;7.07;;;4.45;;
37383;SDS011;23258;49.718;11.082;2023-08-06T00:32:56;3.58;;;3.20;;
37383;SDS011;23258;49.718;11.082;2023-08-06T00:35:26;3.88;;;3.58;;
37383;SDS011;23258;49.718;11.082;2023-08-06T00:37:58;4.03;;;3.72;;
37383;SDS011;23258;49.718;11.082;2023-08-06T00:40:28;3.63;;;3.33;;
37383;SDS011;23258;49.718;11.082;2023-08-06T00:42:58;3.28;;;2.97;;
37383;SDS011;23258;49.718;11.082;2023-08-06T00:45:27;3.30;;;3.00;;
37383;SDS011;23258;49.718;11.082;2023-08-06T00:47:57;3.80;;;3.50;;
37383;SDS011;23258;49.718;11.082;2023-08-06T00:50:27;2.85;;;2.65;;
37383;SDS011;23258;49.718;11.082;2023-08-06T00:53:00;3.40;;;3.10;;
37383;SDS011;23258;49.718;11.082;2023-08-06T00:55:30;3.70;;;3.40;;
37383;SDS011;23258;49.718;11.082;2023-08-06T00:58:00;4.38;;;3.67;;
37383;SDS011;23258;49.718;11.082;2023-08-06T01:00:30;3.88;;;3.40;;
37383;SDS011;23258;49.718;11.082;2023-08-06T01:02:59;3.10;;;2.90;;
37383;SDS011;23258;49.718;11.082;2023-08-06T01:05:29;3.15;;;2.95;;
37383;SDS011;23258;49.718;11.082;2023-08-06T01:08:06;3.50;;;3.20;;
37383;SDS011;23258;49.718;11.082;2023-08-06T01:10:40;3.38;;;3.17;;
37383;SDS011;23258;49.718;11.082;2023-08-06T01:13:15;3.60;;;3.30;;
37383;SDS011;23258;49.718;11.082;2023-08-06T01:15:47;3.05;;;2.85;;
37383;SDS011;23258;49.718;11.082;2023-08-06T01:18:18;3.38;;;3.10;;
37383;SDS011;23258;49.718;11.082;2023-08-06T01:20:51;2.83;;;2.63;;
37383;SDS011;23258;49.718;11.082;2023-08-06T01:23:23;3.17;;;2.97;;
37383;SDS011;23258;49.718;11.082;2023-08-06T01:25:56;3.03;;;2.83;;
37383;SDS011;23258;49.718;11.082;2023-08-06T01:28:40;2.83;;;2.63;;
37383;SDS011;23258;49.718;11.082;2023-08-06T01:31:15;3.13;;;2.83;;
37383;SDS011;23258;49.718;11.082;2023-08-06T01:33:47;3.50;;;3.03;;
37383;SDS011;23258;49.718;11.082;2023-08-06T01:36:20;3.72;;;3.42;;
37383;SDS011;23258;49.718;11.082;2023-08-06T01:38:51;3.00;;;2.80;;
37383;SDS011;23258;49.718;11.082;2023-08-06T01:41:21;3.17;;;2.97;;
37383;SDS011;23258;49.718;11.082;2023-08-06T01:43:50;3.03;;;2.83;;
37383;SDS011;23258;49.718;11.082;2023-08-06T01:46:20;3.15;;;2.85;;
37383;SDS011;23258;49.718;11.082;2023-08-06T01:48:50;4.47;;;2.90;;
37383;SDS011;23258;49.718;11.082;2023-08-06T01:51:22;3.28;;;3.00;;
37383;SDS011;23258;49.718;11.082;2023-08-06T01:53:52;2.72;;;2.55;;
37383;SDS011;23258;49.718;11.082;2023-08-06T01:56:21;4.10;;;2.50;;
37383;SDS011;23258;49.718;11.082;2023-08-06T01:58:51;3.08;;;2.58;;
37383;SDS011;23258;49.718;11.082;2023-08-06T02:01:21;5.93;;;2.47;;
37383;SDS011;23258;49.718;11.082;2023-08-06T02:03:51;2.75;;;2.35;;
37383;SDS011;23258;49.718;11.082;2023-08-06T02:06:23;3.13;;;2.88;;
37383;SDS011;23258;49.718;11.082;2023-08-06T02:08:53;2.65;;;2.45;;
37383;SDS011;23258;49.718;11.082;2023-08-06T02:11:23;2.33;;;2.17;;
37383;SDS011;23258;49.718;11.082;2023-08-06T02:13:53;3.00;;;2.20;;
37383;SDS011;23258;49.718;11.082;2023-08-06T02:16:22;2.38;;;2.17;;
37383;SDS011;23258;49.718;11.082;2023-08-06T02:18:52;1.98;;;1.88;;
37383;SDS011;23258;49.718;11.082;2023-08-06T02:21:24;2.00;;;1.90;;
37383;SDS011;23258;49.718;11.082;2023-08-06T02:23:54;2.30;;;2.20;;
37383;SDS011;23258;49.718;11.082;2023-08-06T02:26:24;2.60;;;2.40;;
37383;SDS011;23258;49.718;11.082;2023-08-06T02:28:55;1.73;;;1.63;;
37383;SDS011;23258;49.718;11.082;2023-08-06T02:31:24;2.28;;;2.08;;
37383;SDS011;23258;49.718;11.082;2023-08-06T02:33:54;2.10;;;2.00;;
37383;SDS011;23258;49.718;11.082;2023-08-06T02:36:27;2.20;;;2.10;;
37383;SDS011;23258;49.718;11.082;2023-08-06T02:38:58;2.95;;;2.58;;
37383;SDS011;23258;49.718;11.082;2023-08-06T02:41:29;1.98;;;1.88;;
37383;SDS011;23258;49.718;11.082;2023-08-06T02:43:59;1.75;;;1.65;;
37383;SDS011;23258;49.718;11.082;2023-08-06T02:46:29;2.10;;;2.00;;
37383;SDS011;23258;49.718;11.082;2023-08-06T02:48:59;2.15;;;1.95;;
37383;SDS011;23258;49.718;11.082;2023-08-06T02:51:31;2.22;;;2.10;;
37383;SDS011;23258;49.718;11.082;2023-08-06T02:54:01;1.70;;;1.60;;
37383;SDS011;23258;49.718;11.082;2023-08-06T02:56:34;1.83;;;1.73;;
37383;SDS011;23258;49.718;11.082;2023-08-06T02:59:20;2.05;;;1.95;;
37383;SDS011;23258;49.718;11.082;2023-08-06T03:02:13;2.60;;;2.28;;
37383;SDS011;23258;49.718;11.082;2023-08-06T03:05:04;1.90;;;1.80;;
37383;SDS011;23258;49.718;11.082;2023-08-06T03:07:42;1.50;;;1.48;;
37383;SDS011;23258;49.718;11.082;2023-08-06T03:10:17;1.77;;;1.67;;
37383;SDS011;23258;49.718;11.082;2023-08-06T03:12:50;2.22;;;2.03;;
37383;SDS011;23258;49.718;11.082;2023-08-06T03:15:20;1.92;;;1.83;;
37383;SDS011;23258;49.718;11.082;2023-08-06T03:17:51;3.35;;;1.88;;
37383;SDS011;23258;49.718;11.082;2023-08-06T03:20:21;1.95;;;1.70;;
37383;SDS011;23258;49.718;11.082;2023-08-06T03:22:54;1.65;;;1.55;;
37383;SDS011;23258;49.718;11.082;2023-08-06T03:25:24;1.70;;;1.60;;
37383;SDS011;23258;49.718;11.082;2023-08-06T03:27:53;1.92;;;1.58;;
37383;SDS011;23258;49.718;11.082;2023-08-06T03:30:23;1.48;;;1.42;;
37383;SDS011;23258;49.718;11.082;2023-08-06T03:32:54;2.00;;;1.70;;
37383;SDS011;23258;49.718;11.082;2023-08-06T03:35:24;1.75;;;1.65;;
37383;SDS011;23258;49.718;11.082;2023-08-06T03:37:56;2.97;;;1.88;;
37383;SDS011;23258;49.718;11.082;2023-08-06T03:40:27;1.70;;;1.60;;
37383;SDS011;23258;49.718;11.082;2023-08-06T03:42:58;2.50;;;1.98;;
37383;SDS011;23258;49.718;11.082;2023-08-06T03:45:28;1.90;;;1.80;;
37383;SDS011;23258;49.718;11.082;2023-08-06T03:47:58;1.88;;;1.77;;
37383;SDS011;23258;49.718;11.082;2023-08-06T03:50:28;1.90;;;1.80;;
37383;SDS011;23258;49.718;11.082;2023-08-06T03:53:00;3.20;;;1.48;;
37383;SDS011;23258;49.718;11.082;2023-08-06T03:55:30;3.97;;;2.00;;
37383;SDS011;23258;49.718;11.082;2023-08-06T03:58:00;1.45;;;1.40;;
37383;SDS011;23258;49.718;11.082;2023-08-06T04:00:30;4.25;;;1.90;;
37383;SDS011;23258;49.718;11.082;2023-08-06T04:03:00;2.33;;;1.98;;
37383;SDS011;23258;49.718;11.082;2023-08-06T04:05:31;1.67;;;1.60;;
37383;SDS011;23258;49.718;11.082;2023-08-06T04:08:03;3.03;;;2.20;;
37383;SDS011;23258;49.718;11.082;2023-08-06T04:10:33;2.05;;;1.95;;
37383;SDS011;23258;49.718;11.082;2023-08-06T04:13:03;1.95;;;1.85;;
37383;SDS011;23258;49.718;11.082;2023-08-06T04:15:33;1.90;;;1.80;;
37383;SDS011;23258;49.718;11.082;2023-08-06T04:18:03;2.35;;;1.75;;
37383;SDS011;23258;49.718;11.082;2023-08-06T04:20:32;1.60;;;1.55;;
37383;SDS011;23258;49.718;11.082;2023-08-06T04:23:08;1.98;;;1.80;;
37383;SDS011;23258;49.718;11.082;2023-08-06T04:25:38;1.65;;;1.55;;
37383;SDS011;23258;49.718;11.082;2023-08-06T04:28:08;2.45;;;2.15;;
37383;SDS011;23258;49.718;11.082;2023-08-06T04:30:38;1.90;;;1.80;;
37383;SDS011;23258;49.718;11.082;2023-08-06T04:33:08;1.73;;;1.60;;
37383;SDS011;23258;49.718;11.082;2023-08-06T04:35:38;1.90;;;1.80;;
37383;SDS011;23258;49.718;11.082;2023-08-06T04:38:10;1.95;;;1.85;;
37383;SDS011;23258;49.718;11.082;2023-08-06T04:40:40;2.50;;;2.00;;
37383;SDS011;23258;49.718;11.082;2023-08-06T04:43:10;2.05;;;1.95;;
37383;SDS011;23258;49.718;11.082;2023-08-06T04:45:45;2.10;;;1.98;;
37383;SDS011;23258;49.718;11.082;2023-08-06T04:48:15;1.85;;;1.75;;
37383;SDS011;23258;49.718;11.082;2023-08-06T04:50:44;2.10;;;2.00;;
37383;SDS011;23258;49.718;11.082;2023-08-06T04:53:17;2.00;;;1.90;;
37383;SDS011;23258;49.718;11.082;2023-08-06T04:55:47;2.00;;;1.90;;
37383;SDS011;23258;49.718;11.082;2023-08-06T04:58:16;2.78;;;2.58;;
37383;SDS011;23258;49.718;11.082;2023-08-06T05:00:46;2.50;;;1.73;;
37383;SDS011;23258;49.718;11.082;2023-08-06T05:03:16;2.17;;;1.98;;
37383;SDS011;23258;49.718;11.082;2023-08-06T05:05:45;2.08;;;1.80;;
37383;SDS011;23258;49.718;11.082;2023-08-06T05:08:18;4.68;;;2.28;;
37383;SDS011;23258;49.718;11.082;2023-08-06T05:10:47;2.20;;;2.00;;
37383;SDS011;23258;49.718;11.082;2023-08-06T05:13:17;2.50;;;2.33;;
37383;SDS011;23258;49.718;11.082;2023-08-06T05:15:47;1.98;;;1.73;;
37383;SDS011;23258;49.718;11.082;2023-08-06T05:18:17;3.28;;;2.30;;
37383;SDS011;23258;49.718;11.082;2023-08-06T05:20:46;2.20;;;2.03;;
37383;SDS011;23258;49.718;11.082;2023-08-06T05:23:19;2.28;;;2.17;;
37383;SDS011;23258;49.718;11.082;2023-08-06T05:25:48;1.90;;;1.80;;
37383;SDS011;23258;49.718;11.082;2023-08-06T05:28:18;1.88;;;1.77;;
37383;SDS011;23258;49.718;11.082;2023-08-06T05:30:48;2.50;;;2.05;;
37383;SDS011;23258;49.718;11.082;2023-08-06T05:33:18;2.30;;;2.10;;
37383;SDS011;23258;49.718;11.082;2023-08-06T05:35:48;2.22;;;2.13;;
37383;SDS011;23258;49.718;11.082;2023-08-06T05:38:21;3.22;;;2.42;;
37383;SDS011;23258;49.718;11.082;2023-08-06T05:40:50;2.67;;;2.45;;
37383;SDS011;23258;49.718;11.082;2023-08-06T05:43:20;2.55;;;2.30;;
37383;SDS011;23258;49.718;11.082;2023-08-06T05:45:50;1.92;;;1.83;;
37383;SDS011;23258;49.718;11.082;2023-08-06T05:48:20;1.98;;;1.77;;
37383;SDS011;23258;49.718;11.082;2023-08-06T05:50:51;2.00;;;1.80;;
37383;SDS011;23258;49.718;11.082;2023-08-06T05:53:24;2.10;;;1.90;;
37383;SDS011;23258;49.718;11.082;2023-08-06T05:55:54;2.20;;;2.03;;
37383;SDS011;23258;49.718;11.082;2023-08-06T05:58:23;2.03;;;1.92;;
37383;SDS011;23258;49.718;11.082;2023-08-06T06:00:55;2.20;;;2.00;;
37383;SDS011;23258;49.718;11.082;2023-08-06T06:03:25;1.90;;;1.80;;
37383;SDS011;23258;49.718;11.082;2023-08-06T06:05:55;2.17;;;2.08;;
37383;SDS011;23258;49.718;11.082;2023-08-06T06:08:27;2.40;;;2.20;;
37383;SDS011;23258;49.718;11.082;2023-08-06T06:10:57;2.05;;;1.95;;
37383;SDS011;23258;49.718;11.082;2023-08-06T06:13:27;2.30;;;2.10;;
37383;SDS011;23258;49.718;11.082;2023-08-06T06:15:57;2.20;;;2.10;;
37383;SDS011;23258;49.718;11.082;2023-08-06T06:18:27;3.00;;;1.95;;
37383;SDS011;23258;49.718;11.082;2023-08-06T06:20:56;2.15;;;2.05;;
37383;SDS011;23258;49.718;11.082;2023-08-06T06:23:29;3.05;;;2.33;;
37383;SDS011;23258;49.718;11.082;2023-08-06T06:25:59;2.25;;;2.05;;
37383;SDS011;23258;49.718;11.082;2023-08-06T06:28:28;2.55;;;2.25;;
37383;SDS011;23258;49.718;11.082;2023-08-06T06:30:59;2.35;;;2.15;;
37383;SDS011;23258;49.718;11.082;2023-08-06T06:33:30;2.30;;;2.10;;
37383;SDS011;23258;49.718;11.082;2023-08-06T06:36:00;2.45;;;2.25;;
37383;SDS011;23258;49.718;11.082;2023-08-06T06:38:32;2.45;;;2.28;;
37383;SDS011;23258;49.718;11.082;2023-08-06T06:41:02;2.28;;;2.15;;
37383;SDS011;23258;49.718;11.082;2023-08-06T06:43:32;3.55;;;2.63;;
37383;SDS011;23258;49.718;11.082;2023-08-06T06:46:02;2.20;;;2.10;;
37383;SDS011;23258;49.718;11.082;2023-08-06T06:48:32;3.47;;;2.20;;
37383;SDS011;23258;49.718;11.082;2023-08-06T06:51:03;3.55;;;2.40;;
37383;SDS011;23258;49.718;11.082;2023-08-06T06:53:35;2.15;;;2.05;;
37383;SDS011;23258;49.718;11.082;2023-08-06T06:56:05;2.15;;;1.95;;
37383;SDS011;23258;49.718;11.082;2023-08-06T06:58:35;2.28;;;2.10;;
37383;SDS011;23258;49.718;11.082;2023-08-06T07:01:05;3.10;;;2.60;;
37383;SDS011;23258;49.718;11.082;2023-08-06T07:03:36;2.47;;;2.28;;
37383;SDS011;23258;49.718;11.082;2023-08-06T07:06:06;3.00;;;2.60;;
37383;SDS011;23258;49.718;11.082;2023-08-06T07:08:39;2.45;;;2.25;;
37383;SDS011;23258;49.718;11.082;2023-08-06T07:11:08;2.47;;;2.38;;
37383;SDS011;23258;49.718;11.082;2023-08-06T07:13:38;2.45;;;2.25;;
37383;SDS011;23258;49.718;11.082;2023-08-06T07:16:08;2.60;;;2.40;;
37383;SDS011;23258;49.718;11.082;2023-08-06T07:18:37;2.70;;;2.50;;
37383;SDS011;23258;49.718;11.082;2023-08-06T07:21:07;2.63;;;2.42;;
37383;SDS011;23258;49.718;11.082;2023-08-06T07:23:40;2.97;;;2.58;;
37383;SDS011;23258;49.718;11.082;2023-08-06T07:26:09;4.07;;;2.47;;
37383;SDS011;23258;49.718;11.082;2023-08-06T07:28:39;3.88;;;2.58;;
37383;SDS011;23258;49.718;11.082;2023-08-06T07:31:09;2.95;;;2.67;;
37383;SDS011;23258;49.718;11.082;2023-08-06T07:33:39;2.97;;;2.78;;
37383;SDS011;23258;49.718;11.082;2023-08-06T07:36:09;2.67;;;2.47;;
37383;SDS011;23258;49.718;11.082;2023-08-06T07:38:41;2.80;;;2.60;;
37383;SDS011;23258;49.718;11.082;2023-08-06T07:41:11;2.58;;;2.38;;
37383;SDS011;23258;49.718;11.082;2023-08-06T07:43:41;5.40;;;2.72;;
37383;SDS011;23258;49.718;11.082;2023-08-06T07:46:11;2.10;;;2.00;;
37383;SDS011;23258;49.718;11.082;2023-08-06T07:48:41;2.83;;;2.63;;
37383;SDS011;23258;49.718;11.082;2023-08-06T07:51:10;2.97;;;2.75;;
37383;SDS011;23258;49.718;11.082;2023-08-06T07:53:43;5.50;;;2.42;;
37383;SDS011;23258;49.718;11.082;2023-08-06T07:56:12;2.70;;;2.25;;
37383;SDS011;23258;49.718;11.082;2023-08-06T07:58:42;2.92;;;2.10;;
37383;SDS011;23258;49.718;11.082;2023-08-06T08:01:12;3.65;;;2.08;;
37383;SDS011;23258;49.718;11.082;2023-08-06T08:03:41;2.08;;;1.98;;
37383;SDS011;23258;49.718;11.082;2023-08-06T08:06:12;2.53;;;2.20;;
37383;SDS011;23258;49.718;11.082;2023-08-06T08:08:44;2.38;;;2.28;;
37383;SDS011;23258;49.718;11.082;2023-08-06T08:11:14;2.10;;;2.00;;
37383;SDS011;23258;49.718;11.082;2023-08-06T08:13:45;2.90;;;2.28;;
37383;SDS011;23258;49.718;11.082;2023-08-06T08:16:14;2.10;;;2.00;;
37383;SDS011;23258;49.718;11.082;2023-08-06T08:18:44;2.00;;;1.90;;
37383;SDS011;23258;49.718;11.082;2023-08-06T08:21:14;1.98;;;1.88;;
37383;SDS011;23258;49.718;11.082;2023-08-06T08:23:47;2.38;;;1.73;;
37383;SDS011;23258;49.718;11.082;2023-08-06T08:26:16;2.65;;;2.40;;
37383;SDS011;23258;49.718;11.082;2023-08-06T08:28:46;2.15;;;2.00;;
37383;SDS011;23258;49.718;11.082;2023-08-06T08:31:16;2.53;;;2.33;;
37383;SDS011;23258;49.718;11.082;2023-08-06T08:33:46;2.50;;;2.30;;
37383;SDS011;23258;49.718;11.082;2023-08-06T08:36:18;3.00;;;2.08;;
37383;SDS011;23258;49.718;11.082;2023-08-06T08:38:50;2.45;;;1.13;;
37383;SDS011;23258;49.718;11.082;2023-08-06T08:41:20;0.93;;;0.93;;
37383;SDS011;23258;49.718;11.082;2023-08-06T08:43:50;1.15;;;1.05;;
37383;SDS011;23258;49.718;11.082;2023-08-06T08:46:20;1.02;;;0.93;;
37383;SDS011;23258;49.718;11.082;2023-08-06T08:48:50;1.08;;;1.00;;
37383;SDS011;23258;49.718;11.082;2023-08-06T08:51:20;0.98;;;0.98;;
37383;SDS011;23258;49.718;11.082;2023-08-06T08:53:52;1.92;;;1.35;;
37383;SDS011;23258;49.718;11.082;2023-08-06T08:56:23;0.93;;;0.93;;
37383;SDS011;23258;49.718;11.082;2023-08-06T08:58:52;1.10;;;1.10;;
37383;SDS011;23258;49.718;11.082;2023-08-06T09:01:22;0.50;;;0.50;;
37383;SDS011;23258;49.718;11.082;2023-08-06T09:03:52;0.90;;;0.90;;
37383;SDS011;23258;49.718;11.082;2023-08-06T09:06:23;0.75;;;0.75;;
37383;SDS011;23258;49.718;11.082;2023-08-06T09:09:04;2.40;;;0.90;;
37383;SDS011;23258;49.718;11.082;2023-08-06T09:11:36;1.02;;;1.02;;
37383;SDS011;23258;49.718;11.082;2023-08-06T09:14:07;0.60;;;0.60;;
37383;SDS011;23258;49.718;11.082;2023-08-06T09:16:37;0.77;;;0.75;;
37383;SDS011;23258;49.718;11.082;2023-08-06T09:19:07;0.80;;;0.80;;
37383;SDS011;23258;49.718;11.082;2023-08-06T09:21:37;0.80;;;0.80;;
37383;SDS011;23258;49.718;11.082;2023-08-06T09:24:10;0.38;;;0.38;;
37383;SDS011;23258;49.718;11.082;2023-08-06T09:26:40;2.25;;;0.60;;
37383;SDS011;23258;49.718;11.082;2023-08-06T09:29:11;0.80;;;0.80;;
37383;SDS011;23258;49.718;11.082;2023-08-06T09:31:41;0.55;;;0.55;;
37383;SDS011;23258;49.718;11.082;2023-08-06T09:34:11;0.52;;;0.52;;
37383;SDS011;23258;49.718;11.082;2023-08-06T09:36:42;0.57;;;0.57;;
37383;SDS011;23258;49.718;11.082;2023-08-06T09:39:17;0.40;;;0.40;;
37383;SDS011;23258;49.718;11.082;2023-08-06T09:41:47;0.65;;;0.65;;
37383;SDS011;23258;49.718;11.082;2023-08-06T09:44:19;0.60;;;0.60;;
37383;SDS011;23258;49.718;11.082;2023-08-06T09:46:51;0.60;;;0.60;;
37383;SDS011;23258;49.718;11.082;2023-08-06T09:49:24;0.57;;;0.52;;
37383;SDS011;23258;49.718;11.082;2023-08-06T09:51:55;1.10;;;1.00;;
37383;SDS011;23258;49.718;11.082;2023-08-06T09:54:29;0.60;;;0.60;;
37383;SDS011;23258;49.718;11.082;2023-08-06T09:56:58;0.75;;;0.68;;
37383;SDS011;23258;49.718;11.082;2023-08-06T09:59:28;2.63;;;0.68;;
37383;SDS011;23258;49.718;11.082;2023-08-06T10:01:58;0.75;;;0.75;;
37383;SDS011;23258;49.718;11.082;2023-08-06T10:04:28;0.50;;;0.50;;
37383;SDS011;23258;49.718;11.082;2023-08-06T10:07:07;0.90;;;0.75;;
37383;SDS011;23258;49.718;11.082;2023-08-06T10:09:39;0.47;;;0.47;;
37383;SDS011;23258;49.718;11.082;2023-08-06T10:12:09;1.05;;;0.75;;
37383;SDS011;23258;49.718;11.082;2023-08-06T10:14:39;1.98;;;0.60;;
37383;SDS011;23258;49.718;11.082;2023-08-06T10:17:11;0.70;;;0.70;;
37383;SDS011;23258;49.718;11.082;2023-08-06T10:19:40;0.75;;;0.75;;
37383;SDS011;23258;49.718;11.082;2023-08-06T10:22:11;0.35;;;0.35;;
37383;SDS011;23258;49.718;11.082;2023-08-06T10:24:51;1.30;;;0.80;;
37383;SDS011;23258;49.718;11.082;2023-08-06T10:27:21;0.50;;;0.50;;
37383;SDS011;23258;49.718;11.082;2023-08-06T10:29:51;0.30;;;0.30;;
37383;SDS011;23258;49.718;11.082;2023-08-06T10:35:09;0.50;;;0.50;;
37383;SDS011;23258;49.718;11.082;2023-08-06T10:37:59;0.60;;;0.60;;
37383;SDS011;23258;49.718;11.082;2023-08-06T10:40:35;0.30;;;0.30;;
37383;SDS011;23258;49.718;11.082;2023-08-06T10:43:05;0.43;;;0.43;;
37383;SDS011;23258;49.718;11.082;2023-08-06T10:45:37;0.82;;;0.50;;
37383;SDS011;23258;49.718;11.082;2023-08-06T10:48:07;0.40;;;0.40;;
37383;SDS011;23258;49.718;11.082;2023-08-06T10:50:36;0.30;;;0.30;;
37383;SDS011;23258;49.718;11.082;2023-08-06T10:53:07;0.40;;;0.40;;
37383;SDS011;23258;49.718;11.082;2023-08-06T10:55:41;0.30;;;0.30;;
37383;SDS011;23258;49.718;11.082;2023-08-06T10:58:11;0.35;;;0.35;;
37383;SDS011;23258;49.718;11.082;2023-08-06T11:00:44;0.50;;;0.50;;
37383;SDS011;23258;49.718;11.082;2023-08-06T11:03:14;0.52;;;0.52;;
37383;SDS011;23258;49.718;11.082;2023-08-06T11:05:48;0.70;;;0.70;;
37383;SDS011;23258;49.718;11.082;2023-08-06T11:08:23;0.40;;;0.40;;
37383;SDS011;23258;49.718;11.082;2023-08-06T11:10:55;0.38;;;0.38;;
37383;SDS011;23258;49.718;11.082;2023-08-06T11:13:37;1.15;;;0.47;;
37383;SDS011;23258;49.718;11.082;2023-08-06T11:16:07;0.43;;;0.43;;
37383;SDS011;23258;49.718;11.082;2023-08-06T11:18:37;0.50;;;0.50;;
37383;SDS011;23258;49.718;11.082;2023-08-06T11:21:07;0.38;;;0.38;;
37383;SDS011;23258;49.718;11.082;2023-08-06T11:23:36;0.77;;;0.60;;
37383;SDS011;23258;49.718;11.082;2023-08-06T11:26:09;0.20;;;0.20;;
37383;SDS011;23258;49.718;11.082;2023-08-06T11:28:42;0.57;;;0.57;;
37383;SDS011;23258;49.718;11.082;2023-08-06T11:31:18;0.60;;;0.60;;
37383;SDS011;23258;49.718;11.082;2023-08-06T11:33:49;1.58;;;0.50;;
37383;SDS011;23258;49.718;11.082;2023-08-06T11:36:28;1.00;;;0.70;;
37383;SDS011;23258;49.718;11.082;2023-08-06T11:38:58;1.38;;;0.65;;
37383;SDS011;23258;49.718;11.082;2023-08-06T11:41:32;0.55;;;0.55;;
37383;SDS011;23258;49.718;11.082;2023-08-06T11:44:03;0.40;;;0.40;;
37383;SDS011;23258;49.718;11.082;2023-08-06T11:49:18;0.25;;;0.25;;
37383;SDS011;23258;49.718;11.082;2023-08-06T11:51:51;0.55;;;0.55;;
37383;SDS011;23258;49.718;11.082;2023-08-06T11:54:30;0.40;;;0.40;;
37383;SDS011;23258;49.718;11.082;2023-08-06T11:57:03;0.40;;;0.40;;
37383;SDS011;23258;49.718;11.082;2023-08-06T11:59:34;0.32;;;0.30;;
37383;SDS011;23258;49.718;11.082;2023-08-06T12:02:05;0.50;;;0.50;;
37383;SDS011;23258;49.718;11.082;2023-08-06T12:07:25;0.55;;;0.55;;
37383;SDS011;23258;49.718;11.082;2023-08-06T12:09:55;0.30;;;0.30;;
37383;SDS011;23258;49.718;11.082;2023-08-06T12:12:27;0.28;;;0.28;;
37383;SDS011;23258;49.718;11.082;2023-08-06T12:14:57;0.40;;;0.40;;
37383;SDS011;23258;49.718;11.082;2023-08-06T12:17:27;0.95;;;0.50;;
37383;SDS011;23258;49.718;11.082;2023-08-06T12:19:57;0.30;;;0.30;;
37383;SDS011;23258;49.718;11.082;2023-08-06T12:22:26;0.30;;;0.30;;
37383;SDS011;23258;49.718;11.082;2023-08-06T12:24:59;0.47;;;0.47;;
37383;SDS011;23258;49.718;11.082;2023-08-06T12:27:31;0.50;;;0.50;;
37383;SDS011;23258;49.718;11.082;2023-08-06T12:30:01;0.50;;;0.50;;
37383;SDS011;23258;49.718;11.082;2023-08-06T12:32:31;0.35;;;0.35;;
37383;SDS011;23258;49.718;11.082;2023-08-06T12:35:01;0.40;;;0.40;;
37383;SDS011;23258;49.718;11.082;2023-08-06T12:37:31;0.55;;;0.55;;
37383;SDS011;23258;49.718;11.082;2023-08-06T12:40:01;0.20;;;0.20;;
37383;SDS011;23258;49.718;11.082;2023-08-06T12:42:54;0.40;;;0.40;;
37383;SDS011;23258;49.718;11.082;2023-08-06T12:45:26;0.40;;;0.40;;
37383;SDS011;23258;49.718;11.082;2023-08-06T12:47:56;3.25;;;1.00;;
37383;SDS011;23258;49.718;11.082;2023-08-06T12:50:25;0.45;;;0.45;;
37383;SDS011;23258;49.718;11.082;2023-08-06T12:52:55;0.50;;;0.50;;
37383;SDS011;23258;49.718;11.082;2023-08-06T12:55:25;0.63;;;0.63;;
37383;SDS011;23258;49.718;11.082;2023-08-06T12:58:01;0.40;;;0.40;;
37383;SDS011;23258;49.718;11.082;2023-08-06T13:00:31;0.43;;;0.43;;
37383;SDS011;23258;49.718;11.082;2023-08-06T13:03:01;0.30;;;0.30;;
37383;SDS011;23258;49.718;11.082;2023-08-06T13:05:31;0.20;;;0.20;;
37383;SDS011;23258;49.718;11.082;2023-08-06T13:08:01;0.20;;;0.20;;
37383;SDS011;23258;49.718;11.082;2023-08-06T13:10:30;0.40;;;0.40;;
37383;SDS011;23258;49.718;11.082;2023-08-06T13:13:03;0.30;;;0.30;;
37383;SDS011;23258;49.718;11.082;2023-08-06T13:15:32;0.28;;;0.28;;
37383;SDS011;23258;49.718;11.082;2023-08-06T13:18:02;0.40;;;0.30;;
37383;SDS011;23258;49.718;11.082;2023-08-06T13:20:32;0.30;;;0.30;;
37383;SDS011;23258;49.718;11.082;2023-08-06T13:23:02;0.52;;;0.52;;
37383;SDS011;23258;49.718;11.082;2023-08-06T13:25:31;0.30;;;0.30;;
37383;SDS011;23258;49.718;11.082;2023-08-06T13:28:06;0.30;;;0.30;;
37383;SDS011;23258;49.718;11.082;2023-08-06T13:30:36;0.20;;;0.20;;
37383;SDS011;23258;49.718;11.082;2023-08-06T13:33:08;0.30;;;0.30;;
37383;SDS011;23258;49.718;11.082;2023-08-06T13:35:38;0.22;;;0.22;;
37383;SDS011;23258;49.718;11.082;2023-08-06T13:38:08;0.30;;;0.30;;
37383;SDS011;23258;49.718;11.082;2023-08-06T13:40:38;0.30;;;0.30;;
37383;SDS011;23258;49.718;11.082;2023-08-06T13:43:10;0.17;;;0.17;;
37383;SDS011;23258;49.718;11.082;2023-08-06T13:45:40;0.93;;;0.17;;
37383;SDS011;23258;49.718;11.082;2023-08-06T13:48:10;0.40;;;0.30;;
37383;SDS011;23258;49.718;11.082;2023-08-06T13:50:40;0.17;;;0.17;;
37383;SDS011;23258;49.718;11.082;2023-08-06T13:53:09;0.20;;;0.20;;
37383;SDS011;23258;49.718;11.082;2023-08-06T13:55:41;0.60;;;0.60;;
37383;SDS011;23258;49.718;11.082;2023-08-06T13:58:13;0.17;;;0.17;;
37383;SDS011;23258;49.718;11.082;2023-08-06T14:00:43;0.20;;;0.20;;
37383;SDS011;23258;49.718;11.082;2023-08-06T14:03:13;0.25;;;0.25;;
37383;SDS011;23258;49.718;11.082;2023-08-06T14:05:42;0.10;;;0.10;;
37383;SDS011;23258;49.718;11.082;2023-08-06T14:08:12;0.20;;;0.20;;
37383;SDS011;23258;49.718;11.082;2023-08-06T14:10:44;0.20;;;0.20;;
37383;SDS011;23258;49.718;11.082;2023-08-06T14:13:14;0.10;;;0.10;;
37383;SDS011;23258;49.718;11.082;2023-08-06T14:15:44;0.30;;;0.30;;
37383;SDS011;23258;49.718;11.082;2023-08-06T14:18:14;0.20;;;0.20;;
37383;SDS011;23258;49.718;11.082;2023-08-06T14:20:44;0.20;;;0.20;;
37383;SDS011;23258;49.718;11.082;2023-08-06T14:23:14;0.28;;;0.28;;
37383;SDS011;23258;49.718;11.082;2023-08-06T14:25:43;0.30;;;0.30;;
37383;SDS011;23258;49.718;11.082;2023-08-06T14:28:15;0.20;;;0.17;;
37383;SDS011;23258;49.718;11.082;2023-08-06T14:30:45;0.20;;;0.20;;
37383;SDS011;23258;49.718;11.082;2023-08-06T14:33:15;0.22;;;0.22;;
37383;SDS011;23258;49.718;11.082;2023-08-06T14:35:53;0.35;;;0.35;;
37383;SDS011;23258;49.718;11.082;2023-08-06T14:38:23;0.30;;;0.30;;
37383;SDS011;23258;49.718;11.082;2023-08-06T14:40:52;0.15;;;0.15;;
37383;SDS011;23258;49.718;11.082;2023-08-06T14:43:25;0.20;;;0.20;;
37383;SDS011;23258;49.718;11.082;2023-08-06T14:45:54;0.45;;;0.30;;
37383;SDS011;23258;49.718;11.082;2023-08-06T14:48:24;0.28;;;0.28;;
37383;SDS011;23258;49.718;11.082;2023-08-06T14:50:54;0.30;;;0.30;;
37383;SDS011;23258;49.718;11.082;2023-08-06T14:53:24;0.22;;;0.22;;
37383;SDS011;23258;49.718;11.082;2023-08-06T14:55:53;0.30;;;0.30;;
37383;SDS011;23258;49.718;11.082;2023-08-06T14:58:26;0.45;;;0.45;;
37383;SDS011;23258;49.718;11.082;2023-08-06T15:00:56;0.50;;;0.50;;
37383;SDS011;23258;49.718;11.082;2023-08-06T15:03:25;0.50;;;0.50;;